sensor_id;sensor_type;location;lat;lon;timestamp;P1;durP1;ratioP1;P2;durP2;ratioP2
6828;SDS011;17930;48.592;8.868;2022-07-23T00:00:19;3.67;;;3.37;;
6828;SDS011;17930;48.592;8.868;2022-07-23T00:02:47;6.00;;;3.77;;
6828;SDS011;17930;48.592;8.868;2022-07-23T00:05:13;5.60;;;4.30;;
6828;SDS011;17930;48.592;8.868;2022-07-23T00:07:40;4.10;;;3.70;;
6828;SDS011;17930;48.592;8.868;2022-07-23T00:10:07;4.17;;;3.73;;
6828;SDS011;17930;48.592;8.868;2022-07-23T00:12:36;4.63;;;4.23;;
6828;SDS011;17930;48.592;8.868;2022-07-23T00:15:03;5.37;;;3.50;;
6828;SDS011;17930;48.592;8.868;2022-07-23T00:17:31;5.97;;;3.60;;
6828;SDS011;17930;48.592;8.868;2022-07-23T00:19:58;4.77;;;4.27;;
6828;SDS011;17930;48.592;8.868;2022-07-23T00:22:25;3.70;;;3.33;;
6828;SDS011;17930;48.592;8.868;2022-07-23T00:24:52;3.80;;;3.50;;
6828;SDS011;17930;48.592;8.868;2022-07-23T00:27:19;4.10;;;3.70;;
6828;SDS011;17930;48.592;8.868;2022-07-23T00:29:47;5.63;;;3.93;;
6828;SDS011;17930;48.592;8.868;2022-07-23T00:32:14;4.10;;;3.40;;
6828;SDS011;17930;48.592;8.868;2022-07-23T00:34:40;3.90;;;3.33;;
6828;SDS011;17930;48.592;8.868;2022-07-23T00:37:07;3.73;;;3.43;;
6828;SDS011;17930;48.592;8.868;2022-07-23T00:39:34;4.37;;;3.23;;
6828;SDS011;17930;48.592;8.868;2022-07-23T00:42:00;5.73;;;3.40;;
6828;SDS011;17930;48.592;8.868;2022-07-23T00:44:27;4.23;;;3.27;;
6828;SDS011;17930;48.592;8.868;2022-07-23T00:46:56;3.47;;;3.17;;
6828;SDS011;17930;48.592;8.868;2022-07-23T00:49:25;3.53;;;3.23;;
6828;SDS011;17930;48.592;8.868;2022-07-23T00:51:54;4.50;;;3.40;;
6828;SDS011;17930;48.592;8.868;2022-07-23T00:54:21;4.30;;;3.83;;
6828;SDS011;17930;48.592;8.868;2022-07-23T00:56:49;3.87;;;3.53;;
6828;SDS011;17930;48.592;8.868;2022-07-23T00:59:16;4.37;;;3.50;;
6828;SDS011;17930;48.592;8.868;2022-07-23T01:01:43;5.03;;;3.43;;
6828;SDS011;17930;48.592;8.868;2022-07-23T01:04:13;4.27;;;3.50;;
6828;SDS011;17930;48.592;8.868;2022-07-23T01:06:41;3.47;;;3.17;;
6828;SDS011;17930;48.592;8.868;2022-07-23T01:09:09;4.50;;;3.63;;
6828;SDS011;17930;48.592;8.868;2022-07-23T01:11:36;3.83;;;3.40;;
6828;SDS011;17930;48.592;8.868;2022-07-23T01:14:10;4.47;;;3.80;;
6828;SDS011;17930;48.592;8.868;2022-07-23T01:16:39;3.70;;;3.40;;
6828;SDS011;17930;48.592;8.868;2022-07-23T01:19:07;4.50;;;3.37;;
6828;SDS011;17930;48.592;8.868;2022-07-23T01:21:38;6.37;;;3.80;;
6828;SDS011;17930;48.592;8.868;2022-07-23T01:24:08;5.60;;;4.13;;
6828;SDS011;17930;48.592;8.868;2022-07-23T01:26:35;4.90;;;4.27;;
6828;SDS011;17930;48.592;8.868;2022-07-23T01:29:02;5.17;;;4.03;;
6828;SDS011;17930;48.592;8.868;2022-07-23T01:31:30;5.77;;;4.03;;
6828;SDS011;17930;48.592;8.868;2022-07-23T01:33:57;6.03;;;4.20;;
6828;SDS011;17930;48.592;8.868;2022-07-23T01:36:24;4.37;;;3.97;;
6828;SDS011;17930;48.592;8.868;2022-07-23T01:38:51;5.73;;;4.33;;
6828;SDS011;17930;48.592;8.868;2022-07-23T01:41:19;5.10;;;4.60;;
6828;SDS011;17930;48.592;8.868;2022-07-23T01:43:46;5.80;;;4.63;;
6828;SDS011;17930;48.592;8.868;2022-07-23T01:46:12;5.87;;;4.47;;
6828;SDS011;17930;48.592;8.868;2022-07-23T01:48:39;6.33;;;4.13;;
6828;SDS011;17930;48.592;8.868;2022-07-23T01:51:06;4.63;;;3.90;;
6828;SDS011;17930;48.592;8.868;2022-07-23T01:53:33;5.00;;;4.47;;
6828;SDS011;17930;48.592;8.868;2022-07-23T01:56:00;4.13;;;3.73;;
6828;SDS011;17930;48.592;8.868;2022-07-23T01:58:28;5.13;;;4.37;;
6828;SDS011;17930;48.592;8.868;2022-07-23T02:00:55;4.97;;;4.50;;
6828;SDS011;17930;48.592;8.868;2022-07-23T02:03:22;7.43;;;4.13;;
6828;SDS011;17930;48.592;8.868;2022-07-23T02:05:48;4.33;;;3.80;;
6828;SDS011;17930;48.592;8.868;2022-07-23T02:08:16;4.20;;;3.77;;
6828;SDS011;17930;48.592;8.868;2022-07-23T02:10:42;5.20;;;4.40;;
6828;SDS011;17930;48.592;8.868;2022-07-23T02:13:09;5.20;;;4.30;;
6828;SDS011;17930;48.592;8.868;2022-07-23T02:15:37;4.97;;;3.60;;
6828;SDS011;17930;48.592;8.868;2022-07-23T02:18:04;4.50;;;3.97;;
6828;SDS011;17930;48.592;8.868;2022-07-23T02:20:30;4.83;;;4.07;;
6828;SDS011;17930;48.592;8.868;2022-07-23T02:22:57;4.83;;;4.00;;
6828;SDS011;17930;48.592;8.868;2022-07-23T02:25:24;5.30;;;4.43;;
6828;SDS011;17930;48.592;8.868;2022-07-23T02:27:50;4.60;;;3.63;;
6828;SDS011;17930;48.592;8.868;2022-07-23T02:30:17;5.27;;;3.90;;
6828;SDS011;17930;48.592;8.868;2022-07-23T02:32:45;3.97;;;3.57;;
6828;SDS011;17930;48.592;8.868;2022-07-23T02:35:12;4.90;;;4.30;;
6828;SDS011;17930;48.592;8.868;2022-07-23T02:37:38;5.13;;;3.93;;
6828;SDS011;17930;48.592;8.868;2022-07-23T02:40:05;5.17;;;3.87;;
6828;SDS011;17930;48.592;8.868;2022-07-23T02:42:33;4.60;;;3.90;;
6828;SDS011;17930;48.592;8.868;2022-07-23T02:44:59;5.70;;;3.40;;
6828;SDS011;17930;48.592;8.868;2022-07-23T02:47:26;3.57;;;3.23;;
6828;SDS011;17930;48.592;8.868;2022-07-23T02:49:54;4.33;;;3.20;;
6828;SDS011;17930;48.592;8.868;2022-07-23T02:52:21;4.47;;;3.97;;
6828;SDS011;17930;48.592;8.868;2022-07-23T02:54:47;5.13;;;3.60;;
6828;SDS011;17930;48.592;8.868;2022-07-23T02:57:14;8.30;;;4.50;;
6828;SDS011;17930;48.592;8.868;2022-07-23T02:59:41;4.20;;;3.80;;
6828;SDS011;17930;48.592;8.868;2022-07-23T03:02:07;4.83;;;4.33;;
6828;SDS011;17930;48.592;8.868;2022-07-23T03:04:34;4.47;;;4.00;;
6828;SDS011;17930;48.592;8.868;2022-07-23T03:07:02;4.93;;;4.00;;
6828;SDS011;17930;48.592;8.868;2022-07-23T03:09:28;7.10;;;4.17;;
6828;SDS011;17930;48.592;8.868;2022-07-23T03:11:55;6.50;;;4.10;;
6828;SDS011;17930;48.592;8.868;2022-07-23T03:14:22;4.37;;;3.97;;
6828;SDS011;17930;48.592;8.868;2022-07-23T03:16:48;6.30;;;3.53;;
6828;SDS011;17930;48.592;8.868;2022-07-23T03:19:15;4.37;;;3.97;;
6828;SDS011;17930;48.592;8.868;2022-07-23T03:21:42;5.03;;;4.43;;
6828;SDS011;17930;48.592;8.868;2022-07-23T03:24:10;4.63;;;4.00;;
6828;SDS011;17930;48.592;8.868;2022-07-23T03:26:37;4.97;;;4.27;;
6828;SDS011;17930;48.592;8.868;2022-07-23T03:29:05;4.87;;;4.03;;
6828;SDS011;17930;48.592;8.868;2022-07-23T03:31:31;4.83;;;4.33;;
6828;SDS011;17930;48.592;8.868;2022-07-23T03:33:58;4.40;;;3.97;;
6828;SDS011;17930;48.592;8.868;2022-07-23T03:36:25;4.63;;;4.20;;
6828;SDS011;17930;48.592;8.868;2022-07-23T03:38:51;4.97;;;4.10;;
6828;SDS011;17930;48.592;8.868;2022-07-23T03:41:19;5.60;;;4.60;;
6828;SDS011;17930;48.592;8.868;2022-07-23T03:43:47;4.63;;;3.90;;
6828;SDS011;17930;48.592;8.868;2022-07-23T03:46:14;5.13;;;4.30;;
6828;SDS011;17930;48.592;8.868;2022-07-23T03:48:40;5.20;;;4.33;;
6828;SDS011;17930;48.592;8.868;2022-07-23T03:51:07;4.67;;;4.20;;
6828;SDS011;17930;48.592;8.868;2022-07-23T03:53:34;4.87;;;4.33;;
6828;SDS011;17930;48.592;8.868;2022-07-23T03:56:00;4.83;;;4.43;;
6828;SDS011;17930;48.592;8.868;2022-07-23T03:58:29;4.73;;;4.30;;
6828;SDS011;17930;48.592;8.868;2022-07-23T04:00:55;5.10;;;4.60;;
6828;SDS011;17930;48.592;8.868;2022-07-23T04:03:22;5.00;;;3.60;;
6828;SDS011;17930;48.592;8.868;2022-07-23T04:05:49;11.33;;;4.17;;
6828;SDS011;17930;48.592;8.868;2022-07-23T04:08:15;6.07;;;4.20;;
6828;SDS011;17930;48.592;8.868;2022-07-23T04:10:42;6.00;;;4.40;;
6828;SDS011;17930;48.592;8.868;2022-07-23T04:13:09;4.53;;;3.97;;
6828;SDS011;17930;48.592;8.868;2022-07-23T04:15:37;4.87;;;4.37;;
6828;SDS011;17930;48.592;8.868;2022-07-23T04:18:03;4.30;;;3.90;;
6828;SDS011;17930;48.592;8.868;2022-07-23T04:20:30;5.17;;;4.77;;
6828;SDS011;17930;48.592;8.868;2022-07-23T04:22:57;5.17;;;4.40;;
6828;SDS011;17930;48.592;8.868;2022-07-23T04:25:23;4.63;;;4.23;;
6828;SDS011;17930;48.592;8.868;2022-07-23T04:27:50;4.63;;;4.23;;
6828;SDS011;17930;48.592;8.868;2022-07-23T04:30:17;5.87;;;5.27;;
6828;SDS011;17930;48.592;8.868;2022-07-23T04:32:45;5.00;;;4.60;;
6828;SDS011;17930;48.592;8.868;2022-07-23T04:35:12;5.47;;;4.63;;
6828;SDS011;17930;48.592;8.868;2022-07-23T04:37:38;5.63;;;4.90;;
6828;SDS011;17930;48.592;8.868;2022-07-23T04:40:05;5.33;;;4.63;;
6828;SDS011;17930;48.592;8.868;2022-07-23T04:42:32;5.93;;;4.93;;
6828;SDS011;17930;48.592;8.868;2022-07-23T04:44:59;5.20;;;4.70;;
6828;SDS011;17930;48.592;8.868;2022-07-23T04:47:25;5.73;;;4.90;;
6828;SDS011;17930;48.592;8.868;2022-07-23T04:49:53;5.97;;;4.53;;
6828;SDS011;17930;48.592;8.868;2022-07-23T04:52:20;8.33;;;4.87;;
6828;SDS011;17930;48.592;8.868;2022-07-23T04:54:47;8.00;;;4.77;;
6828;SDS011;17930;48.592;8.868;2022-07-23T04:57:13;7.27;;;5.17;;
6828;SDS011;17930;48.592;8.868;2022-07-23T04:59:40;8.73;;;4.50;;
6828;SDS011;17930;48.592;8.868;2022-07-23T05:02:06;5.53;;;4.40;;
6828;SDS011;17930;48.592;8.868;2022-07-23T05:04:33;4.73;;;4.17;;
6828;SDS011;17930;48.592;8.868;2022-07-23T05:07:01;8.10;;;4.87;;
6828;SDS011;17930;48.592;8.868;2022-07-23T05:09:28;6.87;;;4.87;;
6828;SDS011;17930;48.592;8.868;2022-07-23T05:11:55;9.60;;;5.33;;
6828;SDS011;17930;48.592;8.868;2022-07-23T05:14:21;7.23;;;4.90;;
6828;SDS011;17930;48.592;8.868;2022-07-23T05:16:48;5.20;;;4.50;;
6828;SDS011;17930;48.592;8.868;2022-07-23T05:19:14;6.10;;;5.23;;
6828;SDS011;17930;48.592;8.868;2022-07-23T05:21:41;6.00;;;5.20;;
6828;SDS011;17930;48.592;8.868;2022-07-23T05:24:09;7.27;;;4.77;;
6828;SDS011;17930;48.592;8.868;2022-07-23T05:26:36;7.10;;;5.20;;
6828;SDS011;17930;48.592;8.868;2022-07-23T05:29:02;8.50;;;5.07;;
6828;SDS011;17930;48.592;8.868;2022-07-23T05:31:29;5.77;;;4.47;;
6828;SDS011;17930;48.592;8.868;2022-07-23T05:33:56;7.30;;;4.93;;
6828;SDS011;17930;48.592;8.868;2022-07-23T05:36:22;5.80;;;5.27;;
6828;SDS011;17930;48.592;8.868;2022-07-23T05:38:49;7.47;;;5.17;;
6828;SDS011;17930;48.592;8.868;2022-07-23T05:41:17;6.67;;;5.17;;
6828;SDS011;17930;48.592;8.868;2022-07-23T05:43:43;5.37;;;4.87;;
6828;SDS011;17930;48.592;8.868;2022-07-23T05:46:10;7.00;;;5.50;;
6828;SDS011;17930;48.592;8.868;2022-07-23T05:48:37;5.77;;;5.27;;
6828;SDS011;17930;48.592;8.868;2022-07-23T05:51:03;6.60;;;5.90;;
6828;SDS011;17930;48.592;8.868;2022-07-23T05:53:31;7.23;;;5.13;;
6828;SDS011;17930;48.592;8.868;2022-07-23T05:55:59;7.53;;;5.43;;
6828;SDS011;17930;48.592;8.868;2022-07-23T05:58:27;6.67;;;5.70;;
6828;SDS011;17930;48.592;8.868;2022-07-23T06:00:54;6.87;;;5.33;;
6828;SDS011;17930;48.592;8.868;2022-07-23T06:03:20;7.20;;;6.00;;
6828;SDS011;17930;48.592;8.868;2022-07-23T06:05:47;5.90;;;5.40;;
6828;SDS011;17930;48.592;8.868;2022-07-23T06:08:13;6.13;;;5.50;;
6828;SDS011;17930;48.592;8.868;2022-07-23T06:10:40;7.03;;;6.33;;
6828;SDS011;17930;48.592;8.868;2022-07-23T06:13:07;7.40;;;5.50;;
6828;SDS011;17930;48.592;8.868;2022-07-23T06:15:35;6.13;;;5.60;;
6828;SDS011;17930;48.592;8.868;2022-07-23T06:18:02;7.53;;;6.77;;
6828;SDS011;17930;48.592;8.868;2022-07-23T06:20:29;6.77;;;6.17;;
6828;SDS011;17930;48.592;8.868;2022-07-23T06:22:55;9.83;;;6.50;;
6828;SDS011;17930;48.592;8.868;2022-07-23T06:25:22;11.27;;;6.83;;
6828;SDS011;17930;48.592;8.868;2022-07-23T06:27:49;8.00;;;6.67;;
6828;SDS011;17930;48.592;8.868;2022-07-23T06:30:15;7.90;;;6.23;;
6828;SDS011;17930;48.592;8.868;2022-07-23T06:32:45;7.40;;;5.87;;
6828;SDS011;17930;48.592;8.868;2022-07-23T06:35:11;11.63;;;6.93;;
6828;SDS011;17930;48.592;8.868;2022-07-23T06:37:38;7.57;;;6.37;;
6828;SDS011;17930;48.592;8.868;2022-07-23T06:40:05;8.53;;;6.03;;
6828;SDS011;17930;48.592;8.868;2022-07-23T06:42:32;7.40;;;6.40;;
6828;SDS011;17930;48.592;8.868;2022-07-23T06:45:02;7.13;;;5.80;;
6828;SDS011;17930;48.592;8.868;2022-07-23T06:47:29;6.63;;;5.73;;
6828;SDS011;17930;48.592;8.868;2022-07-23T06:49:57;5.97;;;5.27;;
6828;SDS011;17930;48.592;8.868;2022-07-23T06:52:23;6.43;;;5.70;;
6828;SDS011;17930;48.592;8.868;2022-07-23T06:54:51;8.27;;;5.60;;
6828;SDS011;17930;48.592;8.868;2022-07-23T06:57:17;6.33;;;5.57;;
6828;SDS011;17930;48.592;8.868;2022-07-23T06:59:44;6.47;;;5.63;;
6828;SDS011;17930;48.592;8.868;2022-07-23T07:02:11;6.00;;;5.37;;
6828;SDS011;17930;48.592;8.868;2022-07-23T07:04:37;7.70;;;6.50;;
6828;SDS011;17930;48.592;8.868;2022-07-23T07:07:05;6.67;;;5.53;;
6828;SDS011;17930;48.592;8.868;2022-07-23T07:09:32;6.10;;;5.50;;
6828;SDS011;17930;48.592;8.868;2022-07-23T07:11:59;6.27;;;5.47;;
6828;SDS011;17930;48.592;8.868;2022-07-23T07:14:25;6.93;;;5.87;;
6828;SDS011;17930;48.592;8.868;2022-07-23T07:16:52;6.67;;;5.87;;
6828;SDS011;17930;48.592;8.868;2022-07-23T07:19:19;6.60;;;5.47;;
6828;SDS011;17930;48.592;8.868;2022-07-23T07:21:45;5.83;;;5.30;;
6828;SDS011;17930;48.592;8.868;2022-07-23T07:24:13;5.10;;;4.57;;
6828;SDS011;17930;48.592;8.868;2022-07-23T07:26:40;6.33;;;4.73;;
6828;SDS011;17930;48.592;8.868;2022-07-23T07:29:07;4.83;;;4.40;;
6828;SDS011;17930;48.592;8.868;2022-07-23T07:31:34;5.80;;;5.23;;
6828;SDS011;17930;48.592;8.868;2022-07-23T07:34:00;5.83;;;5.30;;
6828;SDS011;17930;48.592;8.868;2022-07-23T07:36:27;5.97;;;5.37;;
6828;SDS011;17930;48.592;8.868;2022-07-23T07:38:54;5.63;;;5.07;;
6828;SDS011;17930;48.592;8.868;2022-07-23T07:41:22;5.47;;;4.97;;
6828;SDS011;17930;48.592;8.868;2022-07-23T07:43:49;5.07;;;4.67;;
6828;SDS011;17930;48.592;8.868;2022-07-23T07:46:16;5.23;;;4.73;;
6828;SDS011;17930;48.592;8.868;2022-07-23T07:48:42;6.90;;;5.00;;
6828;SDS011;17930;48.592;8.868;2022-07-23T07:51:09;7.33;;;5.30;;
6828;SDS011;17930;48.592;8.868;2022-07-23T07:53:36;5.20;;;4.70;;
6828;SDS011;17930;48.592;8.868;2022-07-23T07:56:03;5.73;;;5.23;;
6828;SDS011;17930;48.592;8.868;2022-07-23T07:58:31;6.70;;;6.10;;
6828;SDS011;17930;48.592;8.868;2022-07-23T08:00:58;4.30;;;4.00;;
6828;SDS011;17930;48.592;8.868;2022-07-23T08:03:25;7.20;;;4.87;;
6828;SDS011;17930;48.592;8.868;2022-07-23T08:05:52;4.63;;;4.23;;
6828;SDS011;17930;48.592;8.868;2022-07-23T08:08:19;5.30;;;4.30;;
6828;SDS011;17930;48.592;8.868;2022-07-23T08:10:46;5.77;;;4.90;;
6828;SDS011;17930;48.592;8.868;2022-07-23T08:13:12;5.13;;;4.63;;
6828;SDS011;17930;48.592;8.868;2022-07-23T08:15:42;5.53;;;4.90;;
6828;SDS011;17930;48.592;8.868;2022-07-23T08:18:09;5.23;;;4.40;;
6828;SDS011;17930;48.592;8.868;2022-07-23T08:20:36;5.40;;;4.90;;
6828;SDS011;17930;48.592;8.868;2022-07-23T08:23:03;4.03;;;3.70;;
6828;SDS011;17930;48.592;8.868;2022-07-23T08:25:32;6.00;;;4.50;;
6828;SDS011;17930;48.592;8.868;2022-07-23T08:28:00;5.10;;;4.67;;
6828;SDS011;17930;48.592;8.868;2022-07-23T08:30:28;5.07;;;4.50;;
6828;SDS011;17930;48.592;8.868;2022-07-23T08:32:58;5.33;;;4.83;;
6828;SDS011;17930;48.592;8.868;2022-07-23T08:35:26;5.27;;;4.77;;
6828;SDS011;17930;48.592;8.868;2022-07-23T08:37:55;5.23;;;4.50;;
6828;SDS011;17930;48.592;8.868;2022-07-23T08:40:23;5.00;;;4.53;;
6828;SDS011;17930;48.592;8.868;2022-07-23T08:42:51;4.90;;;4.50;;
6828;SDS011;17930;48.592;8.868;2022-07-23T08:45:18;6.50;;;4.83;;
6828;SDS011;17930;48.592;8.868;2022-07-23T08:47:48;6.13;;;4.50;;
6828;SDS011;17930;48.592;8.868;2022-07-23T08:50:17;5.00;;;4.57;;
6828;SDS011;17930;48.592;8.868;2022-07-23T08:52:44;5.13;;;4.63;;
6828;SDS011;17930;48.592;8.868;2022-07-23T08:55:11;5.53;;;4.90;;
6828;SDS011;17930;48.592;8.868;2022-07-23T08:57:38;4.80;;;4.40;;
6828;SDS011;17930;48.592;8.868;2022-07-23T09:00:05;5.40;;;5.00;;
6828;SDS011;17930;48.592;8.868;2022-07-23T09:02:37;5.37;;;4.87;;
6828;SDS011;17930;48.592;8.868;2022-07-23T09:05:05;5.10;;;4.60;;
6828;SDS011;17930;48.592;8.868;2022-07-23T09:07:34;5.50;;;5.00;;
6828;SDS011;17930;48.592;8.868;2022-07-23T09:10:07;5.40;;;4.73;;
6828;SDS011;17930;48.592;8.868;2022-07-23T09:12:36;5.13;;;4.53;;
6828;SDS011;17930;48.592;8.868;2022-07-23T09:15:03;5.03;;;4.50;;
6828;SDS011;17930;48.592;8.868;2022-07-23T09:17:39;5.10;;;4.70;;
6828;SDS011;17930;48.592;8.868;2022-07-23T09:20:08;5.30;;;4.80;;
6828;SDS011;17930;48.592;8.868;2022-07-23T09:22:37;6.47;;;5.23;;
6828;SDS011;17930;48.592;8.868;2022-07-23T09:25:09;6.00;;;5.40;;
6828;SDS011;17930;48.592;8.868;2022-07-23T09:27:47;5.13;;;4.70;;
6828;SDS011;17930;48.592;8.868;2022-07-23T09:30:15;5.17;;;4.77;;
6828;SDS011;17930;48.592;8.868;2022-07-23T09:32:43;5.57;;;4.97;;
6828;SDS011;17930;48.592;8.868;2022-07-23T09:35:10;5.10;;;4.60;;
6828;SDS011;17930;48.592;8.868;2022-07-23T09:37:38;5.50;;;4.87;;
6828;SDS011;17930;48.592;8.868;2022-07-23T09:40:05;5.60;;;5.07;;
6828;SDS011;17930;48.592;8.868;2022-07-23T09:42:34;5.40;;;4.90;;
6828;SDS011;17930;48.592;8.868;2022-07-23T09:45:01;5.43;;;4.93;;
6828;SDS011;17930;48.592;8.868;2022-07-23T09:47:28;5.97;;;5.37;;
6828;SDS011;17930;48.592;8.868;2022-07-23T09:49:57;5.27;;;4.83;;
6828;SDS011;17930;48.592;8.868;2022-07-23T09:52:26;5.53;;;5.03;;
6828;SDS011;17930;48.592;8.868;2022-07-23T09:54:58;5.50;;;5.00;;
6828;SDS011;17930;48.592;8.868;2022-07-23T09:57:27;5.57;;;5.07;;
6828;SDS011;17930;48.592;8.868;2022-07-23T09:59:56;5.00;;;4.50;;
6828;SDS011;17930;48.592;8.868;2022-07-23T10:02:24;5.47;;;5.00;;
6828;SDS011;17930;48.592;8.868;2022-07-23T10:04:53;5.30;;;4.80;;
6828;SDS011;17930;48.592;8.868;2022-07-23T10:07:21;5.80;;;4.80;;
6828;SDS011;17930;48.592;8.868;2022-07-23T10:09:48;5.50;;;5.00;;
6828;SDS011;17930;48.592;8.868;2022-07-23T10:12:19;6.03;;;4.67;;
6828;SDS011;17930;48.592;8.868;2022-07-23T10:14:54;5.87;;;5.00;;
6828;SDS011;17930;48.592;8.868;2022-07-23T10:17:22;5.03;;;4.63;;
6828;SDS011;17930;48.592;8.868;2022-07-23T10:19:49;8.70;;;4.73;;
6828;SDS011;17930;48.592;8.868;2022-07-23T10:22:18;5.10;;;4.70;;
6828;SDS011;17930;48.592;8.868;2022-07-23T10:24:48;5.60;;;5.10;;
6828;SDS011;17930;48.592;8.868;2022-07-23T10:27:37;5.60;;;5.10;;
6828;SDS011;17930;48.592;8.868;2022-07-23T10:30:15;5.00;;;4.60;;
6828;SDS011;17930;48.592;8.868;2022-07-23T10:32:50;5.37;;;4.87;;
6828;SDS011;17930;48.592;8.868;2022-07-23T10:35:26;5.18;;;4.68;;
6828;SDS011;17930;48.592;8.868;2022-07-23T10:38:00;5.85;;;4.80;;
6828;SDS011;17930;48.592;8.868;2022-07-23T10:40:33;5.05;;;4.65;;
6828;SDS011;17930;48.592;8.868;2022-07-23T10:43:01;5.18;;;4.78;;
6828;SDS011;17930;48.592;8.868;2022-07-23T10:45:39;5.40;;;4.90;;
6828;SDS011;17930;48.592;8.868;2022-07-23T10:48:11;5.40;;;4.37;;
6828;SDS011;17930;48.592;8.868;2022-07-23T10:50:40;7.07;;;5.10;;
6828;SDS011;17930;48.592;8.868;2022-07-23T10:53:14;6.03;;;5.53;;
6828;SDS011;17930;48.592;8.868;2022-07-23T10:55:53;6.03;;;4.50;;
6828;SDS011;17930;48.592;8.868;2022-07-23T10:58:22;7.80;;;4.87;;
6828;SDS011;17930;48.592;8.868;2022-07-23T11:03:59;4.70;;;4.30;;
6828;SDS011;17930;48.592;8.868;2022-07-23T11:09:27;5.27;;;4.60;;
6828;SDS011;17930;48.592;8.868;2022-07-23T11:14:59;4.97;;;4.57;;
6828;SDS011;17930;48.592;8.868;2022-07-23T11:17:27;4.67;;;4.27;;
6828;SDS011;17930;48.592;8.868;2022-07-23T11:20:15;5.10;;;4.60;;
6828;SDS011;17930;48.592;8.868;2022-07-23T11:22:47;4.87;;;4.47;;
6828;SDS011;17930;48.592;8.868;2022-07-23T11:25:28;4.90;;;4.47;;
6828;SDS011;17930;48.592;8.868;2022-07-23T11:28:07;5.00;;;4.50;;
6828;SDS011;17930;48.592;8.868;2022-07-23T11:30:38;4.87;;;4.20;;
6828;SDS011;17930;48.592;8.868;2022-07-23T11:33:17;5.07;;;4.57;;
6828;SDS011;17930;48.592;8.868;2022-07-23T11:35:46;5.17;;;4.67;;
6828;SDS011;17930;48.592;8.868;2022-07-23T11:38:15;4.50;;;4.10;;
6828;SDS011;17930;48.592;8.868;2022-07-23T11:40:43;5.73;;;5.13;;
6828;SDS011;17930;48.592;8.868;2022-07-23T11:43:12;4.67;;;4.27;;
6828;SDS011;17930;48.592;8.868;2022-07-23T11:45:49;6.40;;;4.87;;
6828;SDS011;17930;48.592;8.868;2022-07-23T11:48:19;5.03;;;4.50;;
6828;SDS011;17930;48.592;8.868;2022-07-23T11:50:47;4.67;;;4.27;;
6828;SDS011;17930;48.592;8.868;2022-07-23T11:53:20;4.60;;;4.20;;
6828;SDS011;17930;48.592;8.868;2022-07-23T11:55:48;4.33;;;3.93;;
6828;SDS011;17930;48.592;8.868;2022-07-23T11:58:14;4.70;;;4.30;;
6828;SDS011;17930;48.592;8.868;2022-07-23T12:00:41;5.32;;;4.53;;
6828;SDS011;17930;48.592;8.868;2022-07-23T12:03:08;4.78;;;4.40;;
6828;SDS011;17930;48.592;8.868;2022-07-23T12:05:37;5.13;;;4.72;;
6828;SDS011;17930;48.592;8.868;2022-07-23T12:08:05;5.05;;;4.57;;
6828;SDS011;17930;48.592;8.868;2022-07-23T12:10:34;4.90;;;4.50;;
6828;SDS011;17930;48.592;8.868;2022-07-23T12:13:03;4.97;;;4.57;;
6828;SDS011;17930;48.592;8.868;2022-07-23T12:15:32;6.10;;;5.03;;
6828;SDS011;17930;48.592;8.868;2022-07-23T12:18:03;5.10;;;4.70;;
6828;SDS011;17930;48.592;8.868;2022-07-23T12:20:35;5.17;;;4.63;;
6828;SDS011;17930;48.592;8.868;2022-07-23T12:23:06;5.57;;;4.20;;
6828;SDS011;17930;48.592;8.868;2022-07-23T12:25:34;5.10;;;4.60;;
6828;SDS011;17930;48.592;8.868;2022-07-23T12:28:03;14.67;;;4.77;;
6828;SDS011;17930;48.592;8.868;2022-07-23T12:30:32;5.13;;;4.63;;
6828;SDS011;17930;48.592;8.868;2022-07-23T12:33:03;5.03;;;4.40;;
6828;SDS011;17930;48.592;8.868;2022-07-23T12:35:33;4.70;;;4.30;;
6828;SDS011;17930;48.592;8.868;2022-07-23T12:38:04;6.90;;;4.73;;
6828;SDS011;17930;48.592;8.868;2022-07-23T12:40:33;5.53;;;4.33;;
6828;SDS011;17930;48.592;8.868;2022-07-23T12:43:02;5.20;;;4.70;;
6828;SDS011;17930;48.592;8.868;2022-07-23T12:45:41;4.93;;;4.50;;
6828;SDS011;17930;48.592;8.868;2022-07-23T12:48:16;5.20;;;4.70;;
6828;SDS011;17930;48.592;8.868;2022-07-23T12:50:48;5.37;;;4.57;;
6828;SDS011;17930;48.592;8.868;2022-07-23T12:53:20;5.97;;;4.37;;
6828;SDS011;17930;48.592;8.868;2022-07-23T12:55:48;5.20;;;4.80;;
6828;SDS011;17930;48.592;8.868;2022-07-23T12:58:16;5.03;;;4.63;;
6828;SDS011;17930;48.592;8.868;2022-07-23T13:00:53;5.37;;;4.63;;
6828;SDS011;17930;48.592;8.868;2022-07-23T13:03:23;4.50;;;4.10;;
6828;SDS011;17930;48.592;8.868;2022-07-23T13:05:51;7.27;;;4.87;;
6828;SDS011;17930;48.592;8.868;2022-07-23T13:08:20;5.00;;;4.50;;
6828;SDS011;17930;48.592;8.868;2022-07-23T13:10:48;7.50;;;4.63;;
6828;SDS011;17930;48.592;8.868;2022-07-23T13:13:16;5.57;;;4.60;;
6828;SDS011;17930;48.592;8.868;2022-07-23T13:15:45;5.30;;;4.80;;
6828;SDS011;17930;48.592;8.868;2022-07-23T13:18:12;6.30;;;4.30;;
6828;SDS011;17930;48.592;8.868;2022-07-23T13:20:39;5.07;;;4.60;;
6828;SDS011;17930;48.592;8.868;2022-07-23T13:23:06;5.23;;;4.73;;
6828;SDS011;17930;48.592;8.868;2022-07-23T13:25:34;4.90;;;4.40;;
6828;SDS011;17930;48.592;8.868;2022-07-23T13:28:01;5.30;;;4.80;;
6828;SDS011;17930;48.592;8.868;2022-07-23T13:30:28;6.70;;;4.57;;
6828;SDS011;17930;48.592;8.868;2022-07-23T13:32:55;5.80;;;4.67;;
6828;SDS011;17930;48.592;8.868;2022-07-23T13:35:22;5.53;;;5.03;;
6828;SDS011;17930;48.592;8.868;2022-07-23T13:37:49;5.10;;;4.60;;
6828;SDS011;17930;48.592;8.868;2022-07-23T13:40:16;5.17;;;4.63;;
6828;SDS011;17930;48.592;8.868;2022-07-23T13:42:44;5.37;;;4.87;;
6828;SDS011;17930;48.592;8.868;2022-07-23T13:45:11;5.07;;;4.57;;
6828;SDS011;17930;48.592;8.868;2022-07-23T13:47:38;4.83;;;4.43;;
6828;SDS011;17930;48.592;8.868;2022-07-23T13:50:05;5.17;;;4.70;;
6828;SDS011;17930;48.592;8.868;2022-07-23T13:52:32;5.00;;;4.60;;
6828;SDS011;17930;48.592;8.868;2022-07-23T13:55:00;5.97;;;4.73;;
6828;SDS011;17930;48.592;8.868;2022-07-23T13:57:27;5.00;;;4.60;;
6828;SDS011;17930;48.592;8.868;2022-07-23T13:59:55;5.20;;;4.70;;
6828;SDS011;17930;48.592;8.868;2022-07-23T14:02:22;5.37;;;4.87;;
6828;SDS011;17930;48.592;8.868;2022-07-23T14:04:49;5.70;;;5.20;;
6828;SDS011;17930;48.592;8.868;2022-07-23T14:07:23;8.50;;;5.10;;
6828;SDS011;17930;48.592;8.868;2022-07-23T14:09:50;5.37;;;4.83;;
6828;SDS011;17930;48.592;8.868;2022-07-23T14:12:17;5.37;;;4.87;;
6828;SDS011;17930;48.592;8.868;2022-07-23T14:14:44;6.10;;;4.67;;
6828;SDS011;17930;48.592;8.868;2022-07-23T14:17:12;6.13;;;4.70;;
6828;SDS011;17930;48.592;8.868;2022-07-23T14:19:39;7.03;;;5.00;;
6828;SDS011;17930;48.592;8.868;2022-07-23T14:22:06;5.57;;;4.47;;
6828;SDS011;17930;48.592;8.868;2022-07-23T14:24:33;5.37;;;4.90;;
6828;SDS011;17930;48.592;8.868;2022-07-23T14:27:00;6.23;;;5.53;;
6828;SDS011;17930;48.592;8.868;2022-07-23T14:29:28;5.50;;;4.70;;
6828;SDS011;17930;48.592;8.868;2022-07-23T14:31:55;5.30;;;4.80;;
6828;SDS011;17930;48.592;8.868;2022-07-23T14:34:23;5.60;;;4.80;;
6828;SDS011;17930;48.592;8.868;2022-07-23T14:36:50;5.60;;;4.63;;
6828;SDS011;17930;48.592;8.868;2022-07-23T14:39:17;5.83;;;5.20;;
6828;SDS011;17930;48.592;8.868;2022-07-23T14:41:44;5.50;;;5.00;;
6828;SDS011;17930;48.592;8.868;2022-07-23T14:44:10;5.43;;;4.87;;
6828;SDS011;17930;48.592;8.868;2022-07-23T14:46:37;5.30;;;4.80;;
6828;SDS011;17930;48.592;8.868;2022-07-23T14:49:05;6.13;;;4.87;;
6828;SDS011;17930;48.592;8.868;2022-07-23T14:51:33;5.30;;;4.80;;
6828;SDS011;17930;48.592;8.868;2022-07-23T14:54:00;5.60;;;4.97;;
6828;SDS011;17930;48.592;8.868;2022-07-23T14:56:27;5.47;;;4.97;;
6828;SDS011;17930;48.592;8.868;2022-07-23T14:58:54;5.47;;;4.90;;
6828;SDS011;17930;48.592;8.868;2022-07-23T15:01:22;5.17;;;4.67;;
6828;SDS011;17930;48.592;8.868;2022-07-23T15:03:48;6.23;;;5.20;;
6828;SDS011;17930;48.592;8.868;2022-07-23T15:06:16;5.77;;;5.13;;
6828;SDS011;17930;48.592;8.868;2022-07-23T15:08:44;5.13;;;4.63;;
6828;SDS011;17930;48.592;8.868;2022-07-23T15:11:11;5.70;;;5.10;;
6828;SDS011;17930;48.592;8.868;2022-07-23T15:13:38;5.13;;;4.63;;